sensor_id;sensor_type;location;lat;lon;timestamp;P1;durP1;ratioP1;P2;durP2;ratioP2
6332;SDS011;3199;49.102;8.856;2022-07-23T00:00:29;7.80;;;5.43;;
6332;SDS011;3199;49.102;8.856;2022-07-23T00:02:54;6.63;;;5.88;;
6332;SDS011;3199;49.102;8.856;2022-07-23T00:05:20;8.32;;;6.68;;
6332;SDS011;3199;49.102;8.856;2022-07-23T00:07:45;16.02;;;11.85;;
6332;SDS011;3199;49.102;8.856;2022-07-23T00:10:11;67.07;;;46.15;;
6332;SDS011;3199;49.102;8.856;2022-07-23T00:12:37;33.42;;;23.98;;
6332;SDS011;3199;49.102;8.856;2022-07-23T00:15:04;28.73;;;19.23;;
6332;SDS011;3199;49.102;8.856;2022-07-23T00:17:30;10.75;;;8.07;;
6332;SDS011;3199;49.102;8.856;2022-07-23T00:19:56;9.57;;;7.25;;
6332;SDS011;3199;49.102;8.856;2022-07-23T00:22:22;7.95;;;6.68;;
6332;SDS011;3199;49.102;8.856;2022-07-23T00:24:47;7.05;;;5.88;;
6332;SDS011;3199;49.102;8.856;2022-07-23T00:27:13;33.13;;;25.00;;
6332;SDS011;3199;49.102;8.856;2022-07-23T00:29:38;33.72;;;26.95;;
6332;SDS011;3199;49.102;8.856;2022-07-23T00:32:04;19.10;;;14.20;;
6332;SDS011;3199;49.102;8.856;2022-07-23T00:34:29;29.88;;;21.48;;
6332;SDS011;3199;49.102;8.856;2022-07-23T00:36:55;21.92;;;14.98;;
6332;SDS011;3199;49.102;8.856;2022-07-23T00:39:21;16.20;;;10.20;;
6332;SDS011;3199;49.102;8.856;2022-07-23T00:41:47;7.88;;;6.47;;
6332;SDS011;3199;49.102;8.856;2022-07-23T00:44:14;8.30;;;6.63;;
6332;SDS011;3199;49.102;8.856;2022-07-23T00:46:47;8.80;;;6.10;;
6332;SDS011;3199;49.102;8.856;2022-07-23T00:49:21;8.93;;;6.63;;
6332;SDS011;3199;49.102;8.856;2022-07-23T00:51:52;8.23;;;6.15;;
6332;SDS011;3199;49.102;8.856;2022-07-23T00:54:18;9.50;;;6.38;;
6332;SDS011;3199;49.102;8.856;2022-07-23T00:56:44;8.80;;;5.93;;
6332;SDS011;3199;49.102;8.856;2022-07-23T00:59:11;9.00;;;6.38;;
6332;SDS011;3199;49.102;8.856;2022-07-23T01:01:37;7.85;;;5.88;;
6332;SDS011;3199;49.102;8.856;2022-07-23T01:04:03;6.50;;;5.90;;
6332;SDS011;3199;49.102;8.856;2022-07-23T01:06:29;8.48;;;5.95;;
6332;SDS011;3199;49.102;8.856;2022-07-23T01:08:59;7.60;;;6.03;;
6332;SDS011;3199;49.102;8.856;2022-07-23T01:11:24;11.23;;;6.18;;
6332;SDS011;3199;49.102;8.856;2022-07-23T01:13:50;8.02;;;5.55;;
6332;SDS011;3199;49.102;8.856;2022-07-23T01:16:15;8.45;;;6.50;;
6332;SDS011;3199;49.102;8.856;2022-07-23T01:18:41;8.15;;;5.70;;
6332;SDS011;3199;49.102;8.856;2022-07-23T01:21:07;10.10;;;6.25;;
6332;SDS011;3199;49.102;8.856;2022-07-23T01:23:37;7.47;;;6.00;;
6332;SDS011;3199;49.102;8.856;2022-07-23T01:26:03;10.13;;;6.22;;
6332;SDS011;3199;49.102;8.856;2022-07-23T01:28:29;7.75;;;6.30;;
6332;SDS011;3199;49.102;8.856;2022-07-23T01:30:54;6.95;;;5.85;;
6332;SDS011;3199;49.102;8.856;2022-07-23T01:33:20;8.18;;;6.25;;
6332;SDS011;3199;49.102;8.856;2022-07-23T01:35:45;7.15;;;6.35;;
6332;SDS011;3199;49.102;8.856;2022-07-23T01:38:11;8.07;;;6.20;;
6332;SDS011;3199;49.102;8.856;2022-07-23T01:40:36;9.05;;;6.07;;
6332;SDS011;3199;49.102;8.856;2022-07-23T01:43:02;6.95;;;6.25;;
6332;SDS011;3199;49.102;8.856;2022-07-23T01:45:27;7.70;;;5.82;;
6332;SDS011;3199;49.102;8.856;2022-07-23T01:47:53;6.93;;;5.90;;
6332;SDS011;3199;49.102;8.856;2022-07-23T01:50:19;8.07;;;5.93;;
6332;SDS011;3199;49.102;8.856;2022-07-23T01:52:44;6.57;;;5.47;;
6332;SDS011;3199;49.102;8.856;2022-07-23T01:55:10;7.30;;;6.22;;
6332;SDS011;3199;49.102;8.856;2022-07-23T01:57:35;7.95;;;5.63;;
6332;SDS011;3199;49.102;8.856;2022-07-23T02:00:01;8.30;;;6.05;;
6332;SDS011;3199;49.102;8.856;2022-07-23T02:02:28;8.30;;;6.13;;
6332;SDS011;3199;49.102;8.856;2022-07-23T02:04:53;8.45;;;7.20;;
6332;SDS011;3199;49.102;8.856;2022-07-23T02:07:19;7.85;;;6.53;;
6332;SDS011;3199;49.102;8.856;2022-07-23T02:09:44;10.52;;;7.47;;
6332;SDS011;3199;49.102;8.856;2022-07-23T02:12:10;8.77;;;6.78;;
6332;SDS011;3199;49.102;8.856;2022-07-23T02:14:35;9.32;;;6.95;;
6332;SDS011;3199;49.102;8.856;2022-07-23T02:17:01;8.10;;;6.78;;
6332;SDS011;3199;49.102;8.856;2022-07-23T02:19:26;9.57;;;6.60;;
6332;SDS011;3199;49.102;8.856;2022-07-23T02:21:52;8.75;;;6.57;;
6332;SDS011;3199;49.102;8.856;2022-07-23T02:24:19;10.38;;;6.50;;
6332;SDS011;3199;49.102;8.856;2022-07-23T02:26:44;8.90;;;6.43;;
6332;SDS011;3199;49.102;8.856;2022-07-23T02:29:10;7.47;;;6.20;;
6332;SDS011;3199;49.102;8.856;2022-07-23T02:31:36;9.07;;;6.38;;
6332;SDS011;3199;49.102;8.856;2022-07-23T02:34:01;6.95;;;5.97;;
6332;SDS011;3199;49.102;8.856;2022-07-23T02:36:27;11.77;;;6.75;;
6332;SDS011;3199;49.102;8.856;2022-07-23T02:38:52;33.30;;;24.00;;
6332;SDS011;3199;49.102;8.856;2022-07-23T02:41:18;32.35;;;23.33;;
6332;SDS011;3199;49.102;8.856;2022-07-23T02:43:44;15.18;;;9.55;;
6332;SDS011;3199;49.102;8.856;2022-07-23T02:46:09;11.63;;;8.27;;
6332;SDS011;3199;49.102;8.856;2022-07-23T02:48:35;9.38;;;5.90;;
6332;SDS011;3199;49.102;8.856;2022-07-23T02:51:00;7.32;;;6.53;;
6332;SDS011;3199;49.102;8.856;2022-07-23T02:53:26;10.18;;;6.22;;
6332;SDS011;3199;49.102;8.856;2022-07-23T02:55:51;10.20;;;6.28;;
6332;SDS011;3199;49.102;8.856;2022-07-23T02:58:17;8.35;;;6.18;;
6332;SDS011;3199;49.102;8.856;2022-07-23T03:00:43;10.13;;;6.70;;
6332;SDS011;3199;49.102;8.856;2022-07-23T03:03:08;10.15;;;6.07;;
6332;SDS011;3199;49.102;8.856;2022-07-23T03:05:34;10.23;;;6.90;;
6332;SDS011;3199;49.102;8.856;2022-07-23T03:08:00;8.27;;;6.43;;
6332;SDS011;3199;49.102;8.856;2022-07-23T03:10:26;10.18;;;6.07;;
6332;SDS011;3199;49.102;8.856;2022-07-23T03:12:51;8.63;;;6.43;;
6332;SDS011;3199;49.102;8.856;2022-07-23T03:15:17;7.40;;;6.15;;
6332;SDS011;3199;49.102;8.856;2022-07-23T03:17:43;8.75;;;6.32;;
6332;SDS011;3199;49.102;8.856;2022-07-23T03:20:10;9.40;;;6.25;;
6332;SDS011;3199;49.102;8.856;2022-07-23T03:22:35;20.13;;;14.50;;
6332;SDS011;3199;49.102;8.856;2022-07-23T03:25:01;15.55;;;10.32;;
6332;SDS011;3199;49.102;8.856;2022-07-23T03:27:28;19.02;;;13.43;;
6332;SDS011;3199;49.102;8.856;2022-07-23T03:29:55;9.45;;;7.28;;
6332;SDS011;3199;49.102;8.856;2022-07-23T03:32:23;15.30;;;11.38;;
6332;SDS011;3199;49.102;8.856;2022-07-23T03:34:49;21.95;;;14.07;;
6332;SDS011;3199;49.102;8.856;2022-07-23T03:37:16;12.70;;;9.63;;
6332;SDS011;3199;49.102;8.856;2022-07-23T03:39:42;16.70;;;12.20;;
6332;SDS011;3199;49.102;8.856;2022-07-23T03:42:08;9.88;;;7.22;;
6332;SDS011;3199;49.102;8.856;2022-07-23T03:44:33;9.52;;;6.28;;
6332;SDS011;3199;49.102;8.856;2022-07-23T03:47:01;15.00;;;6.53;;
6332;SDS011;3199;49.102;8.856;2022-07-23T03:49:27;8.82;;;5.70;;
6332;SDS011;3199;49.102;8.856;2022-07-23T03:51:53;8.75;;;5.78;;
6332;SDS011;3199;49.102;8.856;2022-07-23T03:54:18;9.38;;;6.72;;
6332;SDS011;3199;49.102;8.856;2022-07-23T03:56:44;14.95;;;9.80;;
6332;SDS011;3199;49.102;8.856;2022-07-23T03:59:09;9.82;;;7.75;;
6332;SDS011;3199;49.102;8.856;2022-07-23T04:01:35;17.88;;;12.27;;
6332;SDS011;3199;49.102;8.856;2022-07-23T04:04:01;10.85;;;8.75;;
6332;SDS011;3199;49.102;8.856;2022-07-23T04:06:27;9.85;;;7.70;;
6332;SDS011;3199;49.102;8.856;2022-07-23T04:08:53;11.48;;;7.70;;
6332;SDS011;3199;49.102;8.856;2022-07-23T04:11:19;11.40;;;8.88;;
6332;SDS011;3199;49.102;8.856;2022-07-23T04:13:44;9.85;;;6.72;;
6332;SDS011;3199;49.102;8.856;2022-07-23T04:16:10;9.07;;;6.78;;
6332;SDS011;3199;49.102;8.856;2022-07-23T04:18:36;11.00;;;6.05;;
6332;SDS011;3199;49.102;8.856;2022-07-23T04:21:02;8.32;;;6.75;;
6332;SDS011;3199;49.102;8.856;2022-07-23T04:23:27;7.68;;;6.03;;
6332;SDS011;3199;49.102;8.856;2022-07-23T04:25:53;9.25;;;7.00;;
6332;SDS011;3199;49.102;8.856;2022-07-23T04:28:18;13.63;;;6.90;;
6332;SDS011;3199;49.102;8.856;2022-07-23T04:30:44;7.32;;;6.22;;
6332;SDS011;3199;49.102;8.856;2022-07-23T04:33:09;8.60;;;6.05;;
6332;SDS011;3199;49.102;8.856;2022-07-23T04:35:35;6.53;;;5.68;;
6332;SDS011;3199;49.102;8.856;2022-07-23T04:38:02;9.55;;;6.28;;
6332;SDS011;3199;49.102;8.856;2022-07-23T04:40:28;11.27;;;7.72;;
6332;SDS011;3199;49.102;8.856;2022-07-23T04:42:54;8.95;;;6.35;;
6332;SDS011;3199;49.102;8.856;2022-07-23T04:45:20;7.18;;;5.95;;
6332;SDS011;3199;49.102;8.856;2022-07-23T04:47:45;7.93;;;6.53;;
6332;SDS011;3199;49.102;8.856;2022-07-23T04:50:11;10.20;;;6.45;;
6332;SDS011;3199;49.102;8.856;2022-07-23T04:52:37;7.15;;;5.68;;
6332;SDS011;3199;49.102;8.856;2022-07-23T04:55:02;8.75;;;6.07;;
6332;SDS011;3199;49.102;8.856;2022-07-23T04:57:28;7.15;;;6.03;;
6332;SDS011;3199;49.102;8.856;2022-07-23T04:59:54;8.18;;;6.82;;
6332;SDS011;3199;49.102;8.856;2022-07-23T05:02:19;8.88;;;6.18;;
6332;SDS011;3199;49.102;8.856;2022-07-23T05:04:45;7.45;;;6.28;;
6332;SDS011;3199;49.102;8.856;2022-07-23T05:07:10;14.05;;;9.30;;
6332;SDS011;3199;49.102;8.856;2022-07-23T05:09:36;16.85;;;7.28;;
6332;SDS011;3199;49.102;8.856;2022-07-23T05:12:02;9.68;;;6.63;;
6332;SDS011;3199;49.102;8.856;2022-07-23T05:14:27;8.52;;;6.65;;
6332;SDS011;3199;49.102;8.856;2022-07-23T05:16:53;12.20;;;6.95;;
6332;SDS011;3199;49.102;8.856;2022-07-23T05:19:19;11.07;;;7.03;;
6332;SDS011;3199;49.102;8.856;2022-07-23T05:21:44;8.15;;;6.50;;
6332;SDS011;3199;49.102;8.856;2022-07-23T05:24:10;8.13;;;6.32;;
6332;SDS011;3199;49.102;8.856;2022-07-23T05:26:35;8.40;;;6.07;;
6332;SDS011;3199;49.102;8.856;2022-07-23T05:29:01;10.52;;;6.57;;
6332;SDS011;3199;49.102;8.856;2022-07-23T05:31:27;8.77;;;6.35;;
6332;SDS011;3199;49.102;8.856;2022-07-23T05:33:53;11.95;;;6.60;;
6332;SDS011;3199;49.102;8.856;2022-07-23T05:36:18;7.57;;;6.43;;
6332;SDS011;3199;49.102;8.856;2022-07-23T05:38:44;7.95;;;6.05;;
6332;SDS011;3199;49.102;8.856;2022-07-23T05:41:09;7.70;;;6.43;;
6332;SDS011;3199;49.102;8.856;2022-07-23T05:43:35;7.28;;;5.82;;
6332;SDS011;3199;49.102;8.856;2022-07-23T05:46:00;7.15;;;6.30;;
6332;SDS011;3199;49.102;8.856;2022-07-23T05:48:26;12.00;;;7.78;;
6332;SDS011;3199;49.102;8.856;2022-07-23T05:50:51;9.18;;;7.03;;
6332;SDS011;3199;49.102;8.856;2022-07-23T05:53:17;8.85;;;6.40;;
6332;SDS011;3199;49.102;8.856;2022-07-23T05:55:42;10.20;;;6.72;;
6332;SDS011;3199;49.102;8.856;2022-07-23T05:58:08;8.68;;;6.32;;
6332;SDS011;3199;49.102;8.856;2022-07-23T06:00:34;8.77;;;6.70;;
6332;SDS011;3199;49.102;8.856;2022-07-23T06:03:00;6.88;;;5.93;;
6332;SDS011;3199;49.102;8.856;2022-07-23T06:05:26;8.13;;;6.20;;
6332;SDS011;3199;49.102;8.856;2022-07-23T06:07:51;7.65;;;5.82;;
6332;SDS011;3199;49.102;8.856;2022-07-23T06:10:18;9.40;;;6.10;;
6332;SDS011;3199;49.102;8.856;2022-07-23T06:12:44;8.60;;;5.95;;
6332;SDS011;3199;49.102;8.856;2022-07-23T06:15:09;8.45;;;5.80;;
6332;SDS011;3199;49.102;8.856;2022-07-23T06:17:36;20.40;;;12.15;;
6332;SDS011;3199;49.102;8.856;2022-07-23T06:20:04;32.25;;;16.80;;
6332;SDS011;3199;49.102;8.856;2022-07-23T06:22:31;29.45;;;15.40;;
6332;SDS011;3199;49.102;8.856;2022-07-23T06:24:56;13.48;;;8.77;;
6332;SDS011;3199;49.102;8.856;2022-07-23T06:27:21;11.68;;;7.18;;
6332;SDS011;3199;49.102;8.856;2022-07-23T06:29:47;12.20;;;7.72;;
6332;SDS011;3199;49.102;8.856;2022-07-23T06:32:13;13.00;;;7.53;;
6332;SDS011;3199;49.102;8.856;2022-07-23T06:34:38;13.50;;;8.80;;
6332;SDS011;3199;49.102;8.856;2022-07-23T06:37:04;17.17;;;8.65;;
6332;SDS011;3199;49.102;8.856;2022-07-23T06:39:29;18.95;;;10.68;;
6332;SDS011;3199;49.102;8.856;2022-07-23T06:41:55;20.40;;;11.63;;
6332;SDS011;3199;49.102;8.856;2022-07-23T06:44:20;14.55;;;10.38;;
6332;SDS011;3199;49.102;8.856;2022-07-23T06:46:46;8.65;;;6.35;;
6332;SDS011;3199;49.102;8.856;2022-07-23T06:49:11;8.65;;;6.85;;
6332;SDS011;3199;49.102;8.856;2022-07-23T06:51:37;11.25;;;7.40;;
6332;SDS011;3199;49.102;8.856;2022-07-23T06:54:02;11.80;;;7.53;;
6332;SDS011;3199;49.102;8.856;2022-07-23T06:56:28;11.95;;;7.22;;
6332;SDS011;3199;49.102;8.856;2022-07-23T06:58:54;13.55;;;7.20;;
6332;SDS011;3199;49.102;8.856;2022-07-23T07:01:19;14.65;;;9.55;;
6332;SDS011;3199;49.102;8.856;2022-07-23T07:03:46;25.70;;;16.30;;
6332;SDS011;3199;49.102;8.856;2022-07-23T07:06:11;16.05;;;10.98;;
6332;SDS011;3199;49.102;8.856;2022-07-23T07:08:37;13.90;;;10.20;;
6332;SDS011;3199;49.102;8.856;2022-07-23T07:11:03;15.00;;;10.35;;
6332;SDS011;3199;49.102;8.856;2022-07-23T07:13:28;12.43;;;7.43;;
6332;SDS011;3199;49.102;8.856;2022-07-23T07:15:54;14.82;;;8.55;;
6332;SDS011;3199;49.102;8.856;2022-07-23T07:18:19;16.10;;;11.68;;
6332;SDS011;3199;49.102;8.856;2022-07-23T07:20:45;36.75;;;22.77;;
6332;SDS011;3199;49.102;8.856;2022-07-23T07:23:10;24.42;;;16.27;;
6332;SDS011;3199;49.102;8.856;2022-07-23T07:25:37;11.55;;;7.93;;
6332;SDS011;3199;49.102;8.856;2022-07-23T07:28:03;13.63;;;7.88;;
6332;SDS011;3199;49.102;8.856;2022-07-23T07:30:28;9.52;;;7.18;;
6332;SDS011;3199;49.102;8.856;2022-07-23T07:32:54;13.70;;;6.88;;
6332;SDS011;3199;49.102;8.856;2022-07-23T07:35:20;10.07;;;7.00;;
6332;SDS011;3199;49.102;8.856;2022-07-23T07:37:45;11.65;;;7.35;;
6332;SDS011;3199;49.102;8.856;2022-07-23T07:40:11;10.10;;;6.65;;
6332;SDS011;3199;49.102;8.856;2022-07-23T07:42:53;10.68;;;6.43;;
6332;SDS011;3199;49.102;8.856;2022-07-23T07:45:19;7.72;;;6.28;;
6332;SDS011;3199;49.102;8.856;2022-07-23T07:47:46;10.52;;;7.10;;
6332;SDS011;3199;49.102;8.856;2022-07-23T07:50:11;8.00;;;6.65;;
6332;SDS011;3199;49.102;8.856;2022-07-23T07:52:37;8.70;;;6.80;;
6332;SDS011;3199;49.102;8.856;2022-07-23T07:55:04;8.15;;;5.93;;
6332;SDS011;3199;49.102;8.856;2022-07-23T07:57:31;7.75;;;6.10;;
6332;SDS011;3199;49.102;8.856;2022-07-23T07:59:57;7.63;;;6.32;;
6332;SDS011;3199;49.102;8.856;2022-07-23T08:02:22;7.28;;;6.20;;
6332;SDS011;3199;49.102;8.856;2022-07-23T08:04:48;9.98;;;6.47;;
6332;SDS011;3199;49.102;8.856;2022-07-23T08:07:14;8.18;;;6.25;;
6332;SDS011;3199;49.102;8.856;2022-07-23T08:09:40;8.57;;;6.32;;
6332;SDS011;3199;49.102;8.856;2022-07-23T08:12:05;10.55;;;6.28;;
6332;SDS011;3199;49.102;8.856;2022-07-23T08:14:31;7.43;;;5.78;;
6332;SDS011;3199;49.102;8.856;2022-07-23T08:16:57;7.03;;;5.82;;
6332;SDS011;3199;49.102;8.856;2022-07-23T08:19:22;7.68;;;5.47;;
6332;SDS011;3199;49.102;8.856;2022-07-23T08:21:48;7.15;;;5.22;;
6332;SDS011;3199;49.102;8.856;2022-07-23T08:24:13;7.07;;;5.13;;
6332;SDS011;3199;49.102;8.856;2022-07-23T08:26:39;7.10;;;4.68;;
6332;SDS011;3199;49.102;8.856;2022-07-23T08:29:05;6.13;;;4.95;;
6332;SDS011;3199;49.102;8.856;2022-07-23T08:31:31;6.10;;;5.00;;
6332;SDS011;3199;49.102;8.856;2022-07-23T08:33:58;8.82;;;4.68;;
6332;SDS011;3199;49.102;8.856;2022-07-23T08:36:24;6.47;;;5.00;;
6332;SDS011;3199;49.102;8.856;2022-07-23T08:38:52;12.73;;;5.38;;
6332;SDS011;3199;49.102;8.856;2022-07-23T08:41:20;8.63;;;5.45;;
6332;SDS011;3199;49.102;8.856;2022-07-23T08:43:46;26.60;;;8.10;;
6332;SDS011;3199;49.102;8.856;2022-07-23T08:46:11;10.40;;;5.38;;
6332;SDS011;3199;49.102;8.856;2022-07-23T08:48:38;9.70;;;4.82;;
6332;SDS011;3199;49.102;8.856;2022-07-23T08:51:04;11.43;;;5.57;;
6332;SDS011;3199;49.102;8.856;2022-07-23T08:53:32;6.47;;;5.15;;
6332;SDS011;3199;49.102;8.856;2022-07-23T08:56:01;10.70;;;5.40;;
6332;SDS011;3199;49.102;8.856;2022-07-23T08:58:27;5.85;;;4.75;;
6332;SDS011;3199;49.102;8.856;2022-07-23T09:00:53;5.88;;;4.65;;
6332;SDS011;3199;49.102;8.856;2022-07-23T09:03:20;7.40;;;4.68;;
6332;SDS011;3199;49.102;8.856;2022-07-23T09:05:48;5.78;;;4.88;;
6332;SDS011;3199;49.102;8.856;2022-07-23T09:08:16;6.45;;;5.00;;
6332;SDS011;3199;49.102;8.856;2022-07-23T09:13:26;7.70;;;4.97;;
6332;SDS011;3199;49.102;8.856;2022-07-23T09:15:53;7.15;;;5.15;;
6332;SDS011;3199;49.102;8.856;2022-07-23T09:18:27;7.07;;;4.60;;
6332;SDS011;3199;49.102;8.856;2022-07-23T09:23:58;6.47;;;4.65;;
6332;SDS011;3199;49.102;8.856;2022-07-23T09:26:41;5.00;;;4.43;;
6332;SDS011;3199;49.102;8.856;2022-07-23T09:31:51;6.05;;;4.60;;
6332;SDS011;3199;49.102;8.856;2022-07-23T09:36:54;6.75;;;4.68;;
6332;SDS011;3199;49.102;8.856;2022-07-23T09:39:33;5.32;;;4.65;;
6332;SDS011;3199;49.102;8.856;2022-07-23T09:44:47;6.55;;;4.50;;
6332;SDS011;3199;49.102;8.856;2022-07-23T09:47:15;8.27;;;4.88;;
6332;SDS011;3199;49.102;8.856;2022-07-23T09:49:57;5.88;;;4.95;;
6332;SDS011;3199;49.102;8.856;2022-07-23T09:52:30;5.63;;;5.03;;
6332;SDS011;3199;49.102;8.856;2022-07-23T09:54:58;5.85;;;5.25;;
6332;SDS011;3199;49.102;8.856;2022-07-23T09:57:25;7.72;;;4.78;;
6332;SDS011;3199;49.102;8.856;2022-07-23T09:59:51;6.20;;;5.18;;
6332;SDS011;3199;49.102;8.856;2022-07-23T10:02:18;6.88;;;5.20;;
6332;SDS011;3199;49.102;8.856;2022-07-23T10:04:44;5.85;;;4.60;;
6332;SDS011;3199;49.102;8.856;2022-07-23T10:07:10;5.20;;;4.63;;
6332;SDS011;3199;49.102;8.856;2022-07-23T10:09:38;5.45;;;4.50;;
6332;SDS011;3199;49.102;8.856;2022-07-23T10:12:09;5.57;;;4.45;;
6332;SDS011;3199;49.102;8.856;2022-07-23T10:14:43;5.07;;;4.47;;
6332;SDS011;3199;49.102;8.856;2022-07-23T10:17:10;7.18;;;4.97;;
6332;SDS011;3199;49.102;8.856;2022-07-23T10:19:35;5.60;;;5.10;;
6332;SDS011;3199;49.102;8.856;2022-07-23T10:22:03;6.55;;;5.57;;
6332;SDS011;3199;49.102;8.856;2022-07-23T10:24:53;6.40;;;5.65;;
6332;SDS011;3199;49.102;8.856;2022-07-23T10:30:00;7.82;;;5.10;;
6332;SDS011;3199;49.102;8.856;2022-07-23T10:35:33;6.10;;;5.47;;
6332;SDS011;3199;49.102;8.856;2022-07-23T10:40:52;6.22;;;5.50;;
6332;SDS011;3199;49.102;8.856;2022-07-23T10:43:20;6.75;;;6.00;;
6332;SDS011;3199;49.102;8.856;2022-07-23T10:45:45;7.40;;;5.47;;
6332;SDS011;3199;49.102;8.856;2022-07-23T10:48:15;6.78;;;5.25;;
6332;SDS011;3199;49.102;8.856;2022-07-23T10:56:17;6.57;;;5.60;;
6332;SDS011;3199;49.102;8.856;2022-07-23T10:59:15;7.15;;;5.43;;
6332;SDS011;3199;49.102;8.856;2022-07-23T11:01:41;6.88;;;5.35;;
6332;SDS011;3199;49.102;8.856;2022-07-23T11:04:06;10.95;;;5.90;;
6332;SDS011;3199;49.102;8.856;2022-07-23T11:09:23;6.47;;;5.65;;
6332;SDS011;3199;49.102;8.856;2022-07-23T11:11:48;6.88;;;5.75;;
6332;SDS011;3199;49.102;8.856;2022-07-23T11:14:14;6.13;;;5.18;;
6332;SDS011;3199;49.102;8.856;2022-07-23T11:16:46;5.30;;;4.80;;
6332;SDS011;3199;49.102;8.856;2022-07-23T11:19:13;4.90;;;4.40;;
6332;SDS011;3199;49.102;8.856;2022-07-23T11:24:13;9.10;;;5.28;;
6332;SDS011;3199;49.102;8.856;2022-07-23T11:26:44;7.10;;;5.28;;
6332;SDS011;3199;49.102;8.856;2022-07-23T11:31:55;6.25;;;5.18;;
6332;SDS011;3199;49.102;8.856;2022-07-23T11:37:00;6.57;;;5.68;;
6332;SDS011;3199;49.102;8.856;2022-07-23T11:39:28;6.55;;;5.38;;
6332;SDS011;3199;49.102;8.856;2022-07-23T11:41:55;5.65;;;5.15;;
6332;SDS011;3199;49.102;8.856;2022-07-23T11:44:31;5.63;;;4.45;;
6332;SDS011;3199;49.102;8.856;2022-07-23T11:49:30;6.43;;;5.40;;
6332;SDS011;3199;49.102;8.856;2022-07-23T11:52:05;5.32;;;4.82;;
6332;SDS011;3199;49.102;8.856;2022-07-23T11:54:34;7.15;;;5.15;;
6332;SDS011;3199;49.102;8.856;2022-07-23T11:57:01;5.57;;;4.57;;
6332;SDS011;3199;49.102;8.856;2022-07-23T11:59:28;4.50;;;4.10;;
6332;SDS011;3199;49.102;8.856;2022-07-23T12:02:00;4.43;;;4.00;;
6332;SDS011;3199;49.102;8.856;2022-07-23T12:04:46;4.63;;;4.22;;
6332;SDS011;3199;49.102;8.856;2022-07-23T12:09:53;7.82;;;5.22;;
6332;SDS011;3199;49.102;8.856;2022-07-23T12:12:19;4.75;;;4.15;;
6332;SDS011;3199;49.102;8.856;2022-07-23T12:17:13;5.47;;;4.38;;
6332;SDS011;3199;49.102;8.856;2022-07-23T12:19:39;6.13;;;4.95;;
6332;SDS011;3199;49.102;8.856;2022-07-23T12:22:05;5.88;;;4.22;;
6332;SDS011;3199;49.102;8.856;2022-07-23T12:24:30;6.22;;;3.92;;
6332;SDS011;3199;49.102;8.856;2022-07-23T12:27:11;4.93;;;4.30;;
6332;SDS011;3199;49.102;8.856;2022-07-23T12:29:38;4.47;;;4.07;;
6332;SDS011;3199;49.102;8.856;2022-07-23T12:32:23;8.30;;;4.30;;
6332;SDS011;3199;49.102;8.856;2022-07-23T12:35:01;5.15;;;4.60;;
6332;SDS011;3199;49.102;8.856;2022-07-23T12:37:32;7.40;;;5.30;;
6332;SDS011;3199;49.102;8.856;2022-07-23T12:40:18;7.60;;;5.43;;
6332;SDS011;3199;49.102;8.856;2022-07-23T12:42:45;6.82;;;5.00;;
6332;SDS011;3199;49.102;8.856;2022-07-23T12:45:15;5.90;;;4.60;;
6332;SDS011;3199;49.102;8.856;2022-07-23T12:50:39;8.05;;;4.93;;
6332;SDS011;3199;49.102;8.856;2022-07-23T12:53:23;5.80;;;4.93;;
6332;SDS011;3199;49.102;8.856;2022-07-23T12:55:57;4.90;;;4.43;;
6332;SDS011;3199;49.102;8.856;2022-07-23T12:58:39;4.95;;;4.45;;
6332;SDS011;3199;49.102;8.856;2022-07-23T13:01:09;5.82;;;5.05;;
6332;SDS011;3199;49.102;8.856;2022-07-23T13:06:37;7.20;;;5.10;;
6332;SDS011;3199;49.102;8.856;2022-07-23T13:09:05;6.30;;;5.15;;
6332;SDS011;3199;49.102;8.856;2022-07-23T13:11:33;5.25;;;4.75;;
6332;SDS011;3199;49.102;8.856;2022-07-23T13:13:59;5.70;;;5.20;;
6332;SDS011;3199;49.102;8.856;2022-07-23T13:16:26;5.82;;;5.03;;
6332;SDS011;3199;49.102;8.856;2022-07-23T13:18:52;7.75;;;5.22;;
6332;SDS011;3199;49.102;8.856;2022-07-23T13:21:18;7.70;;;4.75;;
6332;SDS011;3199;49.102;8.856;2022-07-23T13:23:43;5.30;;;4.80;;
6332;SDS011;3199;49.102;8.856;2022-07-23T13:26:09;6.22;;;5.63;;
6332;SDS011;3199;49.102;8.856;2022-07-23T13:28:35;6.20;;;5.60;;
6332;SDS011;3199;49.102;8.856;2022-07-23T13:31:01;5.90;;;5.28;;
6332;SDS011;3199;49.102;8.856;2022-07-23T13:33:26;6.90;;;5.63;;
6332;SDS011;3199;49.102;8.856;2022-07-23T13:35:52;6.72;;;5.28;;
6332;SDS011;3199;49.102;8.856;2022-07-23T13:38:19;6.32;;;4.95;;
6332;SDS011;3199;49.102;8.856;2022-07-23T13:40:47;7.72;;;5.30;;
6332;SDS011;3199;49.102;8.856;2022-07-23T13:43:15;10.07;;;5.40;;
6332;SDS011;3199;49.102;8.856;2022-07-23T13:45:42;5.45;;;4.95;;
6332;SDS011;3199;49.102;8.856;2022-07-23T13:48:09;7.13;;;6.20;;
6332;SDS011;3199;49.102;8.856;2022-07-23T13:50:36;5.80;;;5.07;;
6332;SDS011;3199;49.102;8.856;2022-07-23T13:53:02;7.90;;;4.70;;
6332;SDS011;3199;49.102;8.856;2022-07-23T13:55:29;9.02;;;5.75;;
6332;SDS011;3199;49.102;8.856;2022-07-23T13:57:55;6.75;;;5.28;;
6332;SDS011;3199;49.102;8.856;2022-07-23T14:00:21;5.88;;;5.20;;
6332;SDS011;3199;49.102;8.856;2022-07-23T14:02:47;7.28;;;5.22;;
6332;SDS011;3199;49.102;8.856;2022-07-23T14:05:12;6.30;;;5.30;;
6332;SDS011;3199;49.102;8.856;2022-07-23T14:07:38;7.53;;;6.50;;
6332;SDS011;3199;49.102;8.856;2022-07-23T14:10:05;7.93;;;5.70;;
6332;SDS011;3199;49.102;8.856;2022-07-23T14:12:32;6.78;;;5.88;;
6332;SDS011;3199;49.102;8.856;2022-07-23T14:14:58;6.97;;;5.57;;
6332;SDS011;3199;49.102;8.856;2022-07-23T14:17:23;7.43;;;5.85;;
6332;SDS011;3199;49.102;8.856;2022-07-23T14:19:49;6.75;;;5.40;;
6332;SDS011;3199;49.102;8.856;2022-07-23T14:22:16;6.05;;;5.35;;
6332;SDS011;3199;49.102;8.856;2022-07-23T14:24:41;6.65;;;5.53;;
6332;SDS011;3199;49.102;8.856;2022-07-23T14:27:07;6.78;;;5.68;;
6332;SDS011;3199;49.102;8.856;2022-07-23T14:29:33;7.63;;;5.68;;
6332;SDS011;3199;49.102;8.856;2022-07-23T14:31:59;6.18;;;5.57;;
6332;SDS011;3199;49.102;8.856;2022-07-23T14:34:25;6.38;;;5.60;;
6332;SDS011;3199;49.102;8.856;2022-07-23T14:36:51;7.22;;;5.32;;
6332;SDS011;3199;49.102;8.856;2022-07-23T14:39:17;5.78;;;5.10;;
6332;SDS011;3199;49.102;8.856;2022-07-23T14:41:43;6.63;;;5.47;;
6332;SDS011;3199;49.102;8.856;2022-07-23T14:44:09;6.43;;;5.47;;
6332;SDS011;3199;49.102;8.856;2022-07-23T14:46:34;6.00;;;5.40;;
6332;SDS011;3199;49.102;8.856;2022-07-23T14:49:00;6.22;;;5.20;;
6332;SDS011;3199;49.102;8.856;2022-07-23T14:51:27;8.23;;;5.53;;
6332;SDS011;3199;49.102;8.856;2022-07-23T14:53:52;6.18;;;5.05;;
6332;SDS011;3199;49.102;8.856;2022-07-23T14:56:18;11.40;;;5.60;;
6332;SDS011;3199;49.102;8.856;2022-07-23T14:58:44;7.65;;;5.50;;
6332;SDS011;3199;49.102;8.856;2022-07-23T15:01:09;5.70;;;5.10;;
6332;SDS011;3199;49.102;8.856;2022-07-23T15:03:35;6.20;;;5.55;;
6332;SDS011;3199;49.102;8.856;2022-07-23T15:06:00;8.63;;;5.30;;
6332;SDS011;3199;49.102;8.856;2022-07-23T15:08:26;6.03;;;5.28;;
6332;SDS011;3199;49.102;8.856;2022-07-23T15:10:51;6.43;;;4.88;;
6332;SDS011;3199;49.102;8.856;2022-07-23T15:13:17;7.00;;;5.68;;
6332;SDS011;3199;49.102;8.856;2022-07-23T15:15:43;9.77;;;6.07;;
6332;SDS011;3199;49.102;8.856;2022-07-23T15:18:09;7.60;;;5.53;;
6332;SDS011;3199;49.102;8.856;2022-07-23T15:20:35;6.07;;;5.30;;
6332;SDS011;3199;49.102;8.856;2022-07-23T15:23:02;5.85;;;5.25;;
6332;SDS011;3199;49.102;8.856;2022-07-23T15:25:28;7.38;;;5.50;;
6332;SDS011;3199;49.102;8.856;2022-07-23T15:27:54;6.75;;;5.50;;
6332;SDS011;3199;49.102;8.856;2022-07-23T15:30:19;7.75;;;5.63;;
6332;SDS011;3199;49.102;8.856;2022-07-23T15:32:45;6.20;;;5.60;;
6332;SDS011;3199;49.102;8.856;2022-07-23T15:35:10;6.70;;;5.65;;
6332;SDS011;3199;49.102;8.856;2022-07-23T15:37:36;8.85;;;6.38;;
6332;SDS011;3199;49.102;8.856;2022-07-23T15:40:02;9.00;;;5.82;;
6332;SDS011;3199;49.102;8.856;2022-07-23T15:42:30;7.25;;;5.97;;
6332;SDS011;3199;49.102;8.856;2022-07-23T15:44:56;6.78;;;6.07;;
6332;SDS011;3199;49.102;8.856;2022-07-23T15:47:21;7.55;;;5.85;;
6332;SDS011;3199;49.102;8.856;2022-07-23T15:49:47;8.52;;;6.18;;
6332;SDS011;3199;49.102;8.856;2022-07-23T15:52:12;10.18;;;6.13;;
6332;SDS011;3199;49.102;8.856;2022-07-23T15:54:38;6.50;;;5.38;;
6332;SDS011;3199;49.102;8.856;2022-07-23T15:57:04;7.78;;;6.00;;
6332;SDS011;3199;49.102;8.856;2022-07-23T15:59:31;7.20;;;6.00;;